Friday, May 25, 2018, 8:35 PM EDT
Back to Local

KBHB, Bar Harbor, Hancock County-bar Harbor Airport

Location: Ellsworth, ME, United States Lat: 44.45
Local Time: 8:35 PM EDT ( 0:35 GMT) Lon: -68.367
Time Zone: US/Eastern Elev: 82 ft

Show me the last for .
Show Decoded

2018-05-25 19:56 METAR KBHB 252356Z AUTO 22008KT 10SM CLR 19/11 A2961 RMK AO2 SLP030 T01940106
                 10289 20189 402890089 53005 $ =
2018-05-25 18:56 METAR KBHB 252256Z AUTO 20010KT 10SM CLR 21/11 A2960 RMK AO2 SLP026 T02110106 $
                 =
2018-05-25 17:56 METAR KBHB 252156Z AUTO 21012KT 10SM CLR 25/12 A2959 RMK AO2 SLP023 T02500117 $
                 =
2018-05-25 16:56 METAR KBHB 252056Z AUTO 22015G21KT 10SM CLR 26/12 A2959 RMK AO2 SLP024 T02560122
                 56008 $ =
2018-05-25 15:56 METAR KBHB 251956Z AUTO 22011KT 10SM CLR 27/13 A2960 RMK AO2 SLP026 T02670133 $
                 =
2018-05-25 14:56 METAR KBHB 251856Z AUTO 24010G17KT 200V290 10SM CLR 28/12 A2961 RMK AO2 SLP029
                 T02830122 $ =
2018-05-25 13:56 METAR KBHB 251756Z AUTO 20015KT 10SM CLR 26/13 A2962 RMK AO2 SLP033 T02560133
                 10261 20139 56020 $ =
2018-05-25 12:56 METAR KBHB 251656Z AUTO 19014KT 10SM CLR 25/13 A2963 RMK AO2 SLP038 T02500128 $
                 =
2018-05-25 10:56 METAR KBHB 251456Z AUTO 20015KT 10SM CLR 22/12 A2968 RMK AO2 SLP053 T02220117
                 56023 $ =
2018-05-25 09:56 METAR KBHB 251356Z AUTO 22013G18KT 10SM CLR 22/11 A2970 RMK AO2 SLP060 T02170106
                 $ =
2018-05-25 08:56 METAR KBHB 251256Z AUTO 21010KT 10SM CLR 17/11 A2972 RMK AO2 SLP068 T01720106 $
                 =
2018-05-25 07:56 METAR KBHB 251156Z AUTO 21012KT 10SM CLR 14/10 A2974 RMK AO2 SLP076 T01390100
                 10139 20100 57019 $ =
2018-05-25 06:56 METAR KBHB 251056Z AUTO 22009KT 10SM CLR 12/09 A2977 RMK AO2 SLP084 T01220094 $
                 =
2018-05-25 05:56 METAR KBHB 250956Z AUTO 22012KT 10SM CLR 11/09 A2978 RMK AO2 SLP089 T01060089 $
                 =
2018-05-25 04:56 METAR KBHB 250856Z AUTO 22011KT 10SM SCT110 11/09 A2980 RMK AO2 SLP096 T01060089
                 56038 $ =
2018-05-25 03:56 METAR KBHB 250756Z AUTO 21015G21KT 10SM CLR 10/09 A2982 RMK AO2 SLP103 T01000089
                 $ =
2018-05-25 02:56 METAR KBHB 250656Z AUTO 21012KT 10SM CLR 10/08 A2987 RMK AO2 SLP119 T01000083 $
                 =
2018-05-25 01:56 METAR KBHB 250556Z AUTO 20012KT 10SM FEW110 10/08 A2991 RMK AO2 SLP133 T01000083
                 10100 20089 58036 $ =
2018-05-25 00:56 METAR KBHB 250456Z AUTO 21010KT 10SM FEW080 SCT110 10/08 A2996 RMK AO2 SLP149
                 T01000078 $ =
2018-05-24 23:56 METAR KBHB 250356Z AUTO 21007KT 10SM FEW070 OVC090 10/07 A3000 RMK AO2 SLP163
                 T01000072 $ =
2018-05-24 22:56 METAR KBHB 250256Z AUTO 22008KT 10SM BKN100 OVC120 09/07 A3002 RMK AO2 SLP169
                 T00940072 58007 $ =
2018-05-24 21:56 METAR KBHB 250156Z AUTO 21009KT 10SM CLR 09/07 A3004 RMK AO2 SLP175 T00890067 $
                 =
2018-05-24 20:56 METAR KBHB 250056Z AUTO 21012G18KT 10SM CLR 09/06 A3005 RMK AO2 SLP179 T00890056
                 $ =

Support USWX by starting your Amazon purchase here.